Terminal Aerodrome Forecast
Issued by NWS

Home | Current Version | Previous Version | Text Only | Print | Product List | Glossary On
Versions: 1 2 3 4 5 6 7 8 9 10 11 12 13 14 15 16 17 18 19 20 21 22 23 24 25 26 27 28 29 30 31 32 33 34
000
FTPQ31 PGUM 301900 AAA
TAFGSN
TAF AMD
PGSN 301957Z 3020/0118 20018G28KT P6SM -RA SCT015 BKN035 BKN100
      TEMPO 3020/3022 2SM +RA BR BKN015
     FM011200 18012G20KT P6SM VCSH SCT015 SCT030 BKN100=

USA.gov is the U.S. government's official web portal to all federal, state and local government web resources and services.